sensor_id;sensor_type;location;lat;lon;timestamp;temperature;humidity
73568;SHT30;61847;54.994;73.310;2022-09-09T00:00:11;9.72;72.62
73568;SHT30;61847;54.994;73.310;2022-09-09T00:02:38;9.71;73.06
73568;SHT30;61847;54.994;73.310;2022-09-09T00:05:38;9.75;72.56
73568;SHT30;61847;54.994;73.310;2022-09-09T00:08:20;9.68;72.49
73568;SHT30;61847;54.994;73.310;2022-09-09T00:10:54;9.69;72.71
73568;SHT30;61847;54.994;73.310;2022-09-09T00:16:22;9.68;73.02
73568;SHT30;61847;54.994;73.310;2022-09-09T00:19:23;9.62;73.27
73568;SHT30;61847;54.994;73.310;2022-09-09T00:22:04;9.51;73.38
73568;SHT30;61847;54.994;73.310;2022-09-09T00:24:53;9.51;73.26
73568;SHT30;61847;54.994;73.310;2022-09-09T00:27:44;9.48;73.39
73568;SHT30;61847;54.994;73.310;2022-09-09T00:32:46;9.37;73.68
73568;SHT30;61847;54.994;73.310;2022-09-09T00:35:18;9.31;73.86
73568;SHT30;61847;54.994;73.310;2022-09-09T00:37:48;9.23;74.35
73568;SHT30;61847;54.994;73.310;2022-09-09T00:40:38;9.16;75.27
73568;SHT30;61847;54.994;73.310;2022-09-09T00:43:31;9.06;75.62
73568;SHT30;61847;54.994;73.310;2022-09-09T00:48:54;9.02;75.63
73568;SHT30;61847;54.994;73.310;2022-09-09T00:56:47;8.93;76.14
73568;SHT30;61847;54.994;73.310;2022-09-09T00:59:53;8.92;76.62
73568;SHT30;61847;54.994;73.310;2022-09-09T01:02:44;8.86;76.60
73568;SHT30;61847;54.994;73.310;2022-09-09T01:08:28;8.72;77.42
73568;SHT30;61847;54.994;73.310;2022-09-09T01:10:58;8.72;77.18
73568;SHT30;61847;54.994;73.310;2022-09-09T01:13:30;8.72;77.75
73568;SHT30;61847;54.994;73.310;2022-09-09T01:15:59;8.72;77.54
73568;SHT30;61847;54.994;73.310;2022-09-09T01:18:38;8.75;77.76
73568;SHT30;61847;54.994;73.310;2022-09-09T01:24:27;8.72;78.15
73568;SHT30;61847;54.994;73.310;2022-09-09T01:27:32;8.71;77.93
73568;SHT30;61847;54.994;73.310;2022-09-09T01:29:59;8.71;77.91
73568;SHT30;61847;54.994;73.310;2022-09-09T01:32:40;8.71;78.63
73568;SHT30;61847;54.994;73.310;2022-09-09T01:35:44;8.72;79.15
73568;SHT30;61847;54.994;73.310;2022-09-09T01:38:17;8.80;77.92
73568;SHT30;61847;54.994;73.310;2022-09-09T01:40:45;8.86;77.48
73568;SHT30;61847;54.994;73.310;2022-09-09T01:43:16;8.92;76.92
73568;SHT30;61847;54.994;73.310;2022-09-09T01:45:56;9.02;76.38
73568;SHT30;61847;54.994;73.310;2022-09-09T01:48:28;9.07;75.63
73568;SHT30;61847;54.994;73.310;2022-09-09T01:51:09;9.10;75.13
73568;SHT30;61847;54.994;73.310;2022-09-09T01:53:45;9.13;74.71
73568;SHT30;61847;54.994;73.310;2022-09-09T02:00:05;9.21;73.62
73568;SHT30;61847;54.994;73.310;2022-09-09T02:05:43;9.23;74.43
73568;SHT30;61847;54.994;73.310;2022-09-09T02:08:23;9.28;74.11
73568;SHT30;61847;54.994;73.310;2022-09-09T02:11:06;9.32;73.50
73568;SHT30;61847;54.994;73.310;2022-09-09T02:14:02;9.35;73.61
73568;SHT30;61847;54.994;73.310;2022-09-09T02:16:47;9.38;74.11
73568;SHT30;61847;54.994;73.310;2022-09-09T02:19:21;9.40;74.16
73568;SHT30;61847;54.994;73.310;2022-09-09T02:22:21;9.44;73.97
73568;SHT30;61847;54.994;73.310;2022-09-09T02:24:50;9.47;73.52
73568;SHT30;61847;54.994;73.310;2022-09-09T02:27:23;9.48;73.66
73568;SHT30;61847;54.994;73.310;2022-09-09T02:30:01;9.50;73.48
73568;SHT30;61847;54.994;73.310;2022-09-09T02:32:37;9.51;74.05
73568;SHT30;61847;54.994;73.310;2022-09-09T02:35:11;9.51;73.68
73568;SHT30;61847;54.994;73.310;2022-09-09T02:37:41;9.58;73.63
73568;SHT30;61847;54.994;73.310;2022-09-09T02:40:10;9.65;73.48
73568;SHT30;61847;54.994;73.310;2022-09-09T02:42:46;9.74;73.12
73568;SHT30;61847;54.994;73.310;2022-09-09T02:45:17;9.81;73.15
73568;SHT30;61847;54.994;73.310;2022-09-09T02:50:39;9.96;72.55
73568;SHT30;61847;54.994;73.310;2022-09-09T02:53:19;10.03;73.15
73568;SHT30;61847;54.994;73.310;2022-09-09T02:55:58;10.10;72.02
73568;SHT30;61847;54.994;73.310;2022-09-09T02:58:31;10.18;72.15
73568;SHT30;61847;54.994;73.310;2022-09-09T03:01:02;10.27;71.71
73568;SHT30;61847;54.994;73.310;2022-09-09T03:03:31;10.33;71.10
73568;SHT30;61847;54.994;73.310;2022-09-09T03:06:10;10.44;70.75
73568;SHT30;61847;54.994;73.310;2022-09-09T03:08:39;10.53;70.61
73568;SHT30;61847;54.994;73.310;2022-09-09T03:11:09;10.60;70.97
73568;SHT30;61847;54.994;73.310;2022-09-09T03:13:37;10.64;71.17
73568;SHT30;61847;54.994;73.310;2022-09-09T03:16:15;10.72;70.48
73568;SHT30;61847;54.994;73.310;2022-09-09T03:18:45;10.79;70.46
73568;SHT30;61847;54.994;73.310;2022-09-09T03:21:11;10.86;70.15
73568;SHT30;61847;54.994;73.310;2022-09-09T03:23:41;10.93;70.19
73568;SHT30;61847;54.994;73.310;2022-09-09T03:26:18;10.99;69.87
73568;SHT30;61847;54.994;73.310;2022-09-09T03:28:55;11.08;69.77
73568;SHT30;61847;54.994;73.310;2022-09-09T03:31:26;11.15;69.24
73568;SHT30;61847;54.994;73.310;2022-09-09T03:33:57;11.23;69.17
73568;SHT30;61847;54.994;73.310;2022-09-09T03:36:26;11.27;68.76
73568;SHT30;61847;54.994;73.310;2022-09-09T03:38:53;11.34;69.01
73568;SHT30;61847;54.994;73.310;2022-09-09T03:41:22;11.39;68.83
73568;SHT30;61847;54.994;73.310;2022-09-09T03:43:54;11.47;68.88
73568;SHT30;61847;54.994;73.310;2022-09-09T03:46:23;11.50;68.66
73568;SHT30;61847;54.994;73.310;2022-09-09T03:48:51;11.59;68.34
73568;SHT30;61847;54.994;73.310;2022-09-09T03:51:22;11.66;68.20
73568;SHT30;61847;54.994;73.310;2022-09-09T03:53:57;11.74;67.63
73568;SHT30;61847;54.994;73.310;2022-09-09T03:56:36;11.82;67.86
73568;SHT30;61847;54.994;73.310;2022-09-09T03:59:03;11.85;67.71
73568;SHT30;61847;54.994;73.310;2022-09-09T04:01:30;11.94;67.03
73568;SHT30;61847;54.994;73.310;2022-09-09T04:03:56;12.01;66.91
73568;SHT30;61847;54.994;73.310;2022-09-09T04:06:24;12.06;66.73
73568;SHT30;61847;54.994;73.310;2022-09-09T04:08:52;12.11;66.03
73568;SHT30;61847;54.994;73.310;2022-09-09T04:11:29;12.19;65.71
73568;SHT30;61847;54.994;73.310;2022-09-09T04:14:07;12.29;64.32
73568;SHT30;61847;54.994;73.310;2022-09-09T04:16:35;12.40;63.59
73568;SHT30;61847;54.994;73.310;2022-09-09T04:19:04;12.45;63.67
73568;SHT30;61847;54.994;73.310;2022-09-09T04:21:32;12.52;63.38
73568;SHT30;61847;54.994;73.310;2022-09-09T04:24:00;12.60;62.41
73568;SHT30;61847;54.994;73.310;2022-09-09T04:26:27;12.68;61.59
73568;SHT30;61847;54.994;73.310;2022-09-09T04:28:53;12.74;61.27
73568;SHT30;61847;54.994;73.310;2022-09-09T04:31:21;12.83;61.27
73568;SHT30;61847;54.994;73.310;2022-09-09T04:33:51;12.87;60.03
73568;SHT30;61847;54.994;73.310;2022-09-09T04:36:29;12.98;58.66
73568;SHT30;61847;54.994;73.310;2022-09-09T04:38:59;13.05;58.80
73568;SHT30;61847;54.994;73.310;2022-09-09T04:41:38;13.12;59.17
73568;SHT30;61847;54.994;73.310;2022-09-09T04:44:15;13.21;58.43
73568;SHT30;61847;54.994;73.310;2022-09-09T04:46:41;13.34;58.27
73568;SHT30;61847;54.994;73.310;2022-09-09T04:49:08;13.43;57.84
73568;SHT30;61847;54.994;73.310;2022-09-09T04:51:34;13.56;58.00
73568;SHT30;61847;54.994;73.310;2022-09-09T04:54:01;13.70;57.36
73568;SHT30;61847;54.994;73.310;2022-09-09T04:56:27;13.87;57.07
73568;SHT30;61847;54.994;73.310;2022-09-09T04:58:58;14.17;56.40
73568;SHT30;61847;54.994;73.310;2022-09-09T05:01:36;14.41;55.30
73568;SHT30;61847;54.994;73.310;2022-09-09T05:04:04;14.51;54.28
73568;SHT30;61847;54.994;73.310;2022-09-09T05:06:33;14.59;54.84
73568;SHT30;61847;54.994;73.310;2022-09-09T05:09:00;14.63;54.15
73568;SHT30;61847;54.994;73.310;2022-09-09T05:11:31;14.63;53.73
73568;SHT30;61847;54.994;73.310;2022-09-09T05:14:20;14.58;53.64
73568;SHT30;61847;54.994;73.310;2022-09-09T05:16:47;14.62;53.44
73568;SHT30;61847;54.994;73.310;2022-09-09T05:19:23;14.56;53.49
73568;SHT30;61847;54.994;73.310;2022-09-09T05:21:51;14.55;53.14
73568;SHT30;61847;54.994;73.310;2022-09-09T05:24:23;14.52;52.76
73568;SHT30;61847;54.994;73.310;2022-09-09T05:26:52;14.51;53.05
73568;SHT30;61847;54.994;73.310;2022-09-09T05:29:19;14.49;53.61
73568;SHT30;61847;54.994;73.310;2022-09-09T05:31:46;14.46;52.85
73568;SHT30;61847;54.994;73.310;2022-09-09T05:34:15;14.48;53.72
73568;SHT30;61847;54.994;73.310;2022-09-09T05:36:42;14.46;53.49
73568;SHT30;61847;54.994;73.310;2022-09-09T05:39:09;14.52;53.10
73568;SHT30;61847;54.994;73.310;2022-09-09T05:41:38;14.61;53.92
73568;SHT30;61847;54.994;73.310;2022-09-09T05:44:05;14.71;53.35
73568;SHT30;61847;54.994;73.310;2022-09-09T05:46:36;14.77;52.59
73568;SHT30;61847;54.994;73.310;2022-09-09T05:49:04;14.79;52.13
73568;SHT30;61847;54.994;73.310;2022-09-09T05:51:34;14.79;52.08
73568;SHT30;61847;54.994;73.310;2022-09-09T05:54:15;14.75;51.66
73568;SHT30;61847;54.994;73.310;2022-09-09T05:56:45;14.75;52.06
73568;SHT30;61847;54.994;73.310;2022-09-09T05:59:17;14.75;51.79
73568;SHT30;61847;54.994;73.310;2022-09-09T06:01:44;14.72;52.31
73568;SHT30;61847;54.994;73.310;2022-09-09T06:04:19;14.72;52.84
73568;SHT30;61847;54.994;73.310;2022-09-09T06:06:48;14.72;55.29
73568;SHT30;61847;54.994;73.310;2022-09-09T06:09:17;14.68;56.57
73568;SHT30;61847;54.994;73.310;2022-09-09T06:11:46;14.66;55.79
73568;SHT30;61847;54.994;73.310;2022-09-09T06:14:14;14.63;57.15
73568;SHT30;61847;54.994;73.310;2022-09-09T06:16:47;14.65;56.41
73568;SHT30;61847;54.994;73.310;2022-09-09T06:19:20;14.63;56.31
73568;SHT30;61847;54.994;73.310;2022-09-09T06:21:47;14.62;54.11
73568;SHT30;61847;54.994;73.310;2022-09-09T06:24:14;14.72;55.88
73568;SHT30;61847;54.994;73.310;2022-09-09T06:26:53;14.75;55.12
73568;SHT30;61847;54.994;73.310;2022-09-09T06:29:28;14.77;56.00
73568;SHT30;61847;54.994;73.310;2022-09-09T06:32:03;14.80;56.53
73568;SHT30;61847;54.994;73.310;2022-09-09T06:34:30;14.82;56.31
73568;SHT30;61847;54.994;73.310;2022-09-09T06:36:58;14.83;54.10
73568;SHT30;61847;54.994;73.310;2022-09-09T06:39:26;14.92;53.16
73568;SHT30;61847;54.994;73.310;2022-09-09T06:41:54;14.97;51.98
73568;SHT30;61847;54.994;73.310;2022-09-09T06:44:44;15.08;52.40
73568;SHT30;61847;54.994;73.310;2022-09-09T06:47:17;15.19;51.66
73568;SHT30;61847;54.994;73.310;2022-09-09T06:49:43;15.32;50.19
73568;SHT30;61847;54.994;73.310;2022-09-09T06:52:10;15.38;48.68
73568;SHT30;61847;54.994;73.310;2022-09-09T06:54:47;15.47;49.02
73568;SHT30;61847;54.994;73.310;2022-09-09T06:57:15;15.54;49.11
73568;SHT30;61847;54.994;73.310;2022-09-09T06:59:41;15.69;47.49
73568;SHT30;61847;54.994;73.310;2022-09-09T07:02:08;15.85;46.78
73568;SHT30;61847;54.994;73.310;2022-09-09T07:04:34;16.03;47.13
73568;SHT30;61847;54.994;73.310;2022-09-09T07:07:01;16.10;46.84
73568;SHT30;61847;54.994;73.310;2022-09-09T07:09:27;16.14;46.34
73568;SHT30;61847;54.994;73.310;2022-09-09T07:11:56;16.21;45.68
73568;SHT30;61847;54.994;73.310;2022-09-09T07:14:33;16.27;46.63
73568;SHT30;61847;54.994;73.310;2022-09-09T07:17:04;16.31;44.68
73568;SHT30;61847;54.994;73.310;2022-09-09T07:19:35;16.43;44.34
73568;SHT30;61847;54.994;73.310;2022-09-09T07:22:14;16.51;44.68
73568;SHT30;61847;54.994;73.310;2022-09-09T07:24:42;16.60;43.96
73568;SHT30;61847;54.994;73.310;2022-09-09T07:27:11;16.69;44.24
73568;SHT30;61847;54.994;73.310;2022-09-09T07:29:40;16.74;43.54
73568;SHT30;61847;54.994;73.310;2022-09-09T07:32:08;16.81;43.33
73568;SHT30;61847;54.994;73.310;2022-09-09T07:34:37;16.86;44.05
73568;SHT30;61847;54.994;73.310;2022-09-09T07:37:06;16.95;43.91
73568;SHT30;61847;54.994;73.310;2022-09-09T07:39:34;16.93;44.03
73568;SHT30;61847;54.994;73.310;2022-09-09T07:42:01;16.95;44.14
73568;SHT30;61847;54.994;73.310;2022-09-09T07:44:27;16.86;43.33
73568;SHT30;61847;54.994;73.310;2022-09-09T07:47:07;16.88;42.74
73568;SHT30;61847;54.994;73.310;2022-09-09T07:49:47;16.88;43.06
73568;SHT30;61847;54.994;73.310;2022-09-09T07:52:19;16.92;41.49
73568;SHT30;61847;54.994;73.310;2022-09-09T07:54:48;16.93;42.61
73568;SHT30;61847;54.994;73.310;2022-09-09T07:57:25;16.98;41.85
73568;SHT30;61847;54.994;73.310;2022-09-09T07:59:53;17.09;40.70
73568;SHT30;61847;54.994;73.310;2022-09-09T08:02:20;17.23;40.22
73568;SHT30;61847;54.994;73.310;2022-09-09T08:04:47;17.36;39.68
73568;SHT30;61847;54.994;73.310;2022-09-09T08:07:15;17.46;40.15
73568;SHT30;61847;54.994;73.310;2022-09-09T08:09:48;17.61;39.10
73568;SHT30;61847;54.994;73.310;2022-09-09T08:12:20;17.67;38.81
73568;SHT30;61847;54.994;73.310;2022-09-09T08:14:47;17.77;39.21
73568;SHT30;61847;54.994;73.310;2022-09-09T08:17:15;17.84;38.96
73568;SHT30;61847;54.994;73.310;2022-09-09T08:19:42;17.94;40.23
73568;SHT30;61847;54.994;73.310;2022-09-09T08:22:17;17.99;39.24
73568;SHT30;61847;54.994;73.310;2022-09-09T08:24:44;18.08;39.21
73568;SHT30;61847;54.994;73.310;2022-09-09T08:27:16;18.19;39.06
73568;SHT30;61847;54.994;73.310;2022-09-09T08:29:42;18.29;38.60
73568;SHT30;61847;54.994;73.310;2022-09-09T08:32:16;18.30;39.05
73568;SHT30;61847;54.994;73.310;2022-09-09T08:34:45;18.40;38.35
73568;SHT30;61847;54.994;73.310;2022-09-09T08:37:16;18.49;38.48
73568;SHT30;61847;54.994;73.310;2022-09-09T08:39:52;18.47;38.33
73568;SHT30;61847;54.994;73.310;2022-09-09T08:42:27;18.53;39.30
73568;SHT30;61847;54.994;73.310;2022-09-09T08:45:25;18.59;36.25
73568;SHT30;61847;54.994;73.310;2022-09-09T08:50:36;18.75;36.53
73568;SHT30;61847;54.994;73.310;2022-09-09T08:53:27;18.78;36.64
73568;SHT30;61847;54.994;73.310;2022-09-09T08:55:59;18.83;36.73
73568;SHT30;61847;54.994;73.310;2022-09-09T08:58:52;18.84;35.81
73568;SHT30;61847;54.994;73.310;2022-09-09T09:13:02;19.33;33.68
73568;SHT30;61847;54.994;73.310;2022-09-09T09:15:35;19.35;33.91
73568;SHT30;61847;54.994;73.310;2022-09-09T09:18:04;19.35;34.05
73568;SHT30;61847;54.994;73.310;2022-09-09T09:20:42;19.29;32.91
73568;SHT30;61847;54.994;73.310;2022-09-09T09:23:21;19.31;32.69
73568;SHT30;61847;54.994;73.310;2022-09-09T09:25:48;19.35;33.15
73568;SHT30;61847;54.994;73.310;2022-09-09T09:28:37;19.36;32.69
73568;SHT30;61847;54.994;73.310;2022-09-09T09:31:18;19.41;33.31
73568;SHT30;61847;54.994;73.310;2022-09-09T09:33:49;19.41;32.27
73568;SHT30;61847;54.994;73.310;2022-09-09T09:36:17;19.36;32.18
73568;SHT30;61847;54.994;73.310;2022-09-09T09:38:59;19.33;31.93
73568;SHT30;61847;54.994;73.310;2022-09-09T09:41:42;19.25;32.30
73568;SHT30;61847;54.994;73.310;2022-09-09T09:44:32;19.19;31.29
73568;SHT30;61847;54.994;73.310;2022-09-09T09:47:20;19.16;31.39
73568;SHT30;61847;54.994;73.310;2022-09-09T09:50:02;19.15;31.50
73568;SHT30;61847;54.994;73.310;2022-09-09T09:52:35;19.15;32.65
73568;SHT30;61847;54.994;73.310;2022-09-09T09:55:13;19.10;32.28
73568;SHT30;61847;54.994;73.310;2022-09-09T09:57:50;19.10;32.23
73568;SHT30;61847;54.994;73.310;2022-09-09T10:00:23;19.07;33.10
73568;SHT30;61847;54.994;73.310;2022-09-09T10:02:59;18.98;33.55
73568;SHT30;61847;54.994;73.310;2022-09-09T10:05:35;18.91;32.83
73568;SHT30;61847;54.994;73.310;2022-09-09T10:08:13;18.87;32.57
73568;SHT30;61847;54.994;73.310;2022-09-09T10:29:33;18.94;34.02
73568;SHT30;61847;54.994;73.310;2022-09-09T10:40:39;18.98;34.69
73568;SHT30;61847;54.994;73.310;2022-09-09T10:43:18;19.12;34.08
73568;SHT30;61847;54.994;73.310;2022-09-09T10:49:13;19.23;34.02
73568;SHT30;61847;54.994;73.310;2022-09-09T10:51:57;19.49;33.60
73568;SHT30;61847;54.994;73.310;2022-09-09T10:57:46;19.43;33.83
73568;SHT30;61847;54.994;73.310;2022-09-09T11:02:57;19.58;34.15
73568;SHT30;61847;54.994;73.310;2022-09-09T11:05:45;19.66;34.39
73568;SHT30;61847;54.994;73.310;2022-09-09T11:08:29;19.62;34.10
73568;SHT30;61847;54.994;73.310;2022-09-09T11:11:19;19.56;33.88
73568;SHT30;61847;54.994;73.310;2022-09-09T11:18:44;19.48;34.67
73568;SHT30;61847;54.994;73.310;2022-09-09T11:21:22;19.41;34.68
73568;SHT30;61847;54.994;73.310;2022-09-09T11:23:57;19.32;34.83
73568;SHT30;61847;54.994;73.310;2022-09-09T11:26:36;19.32;35.13
73568;SHT30;61847;54.994;73.310;2022-09-09T11:29:30;19.31;35.01
73568;SHT30;61847;54.994;73.310;2022-09-09T11:32:27;19.26;34.84
73568;SHT30;61847;54.994;73.310;2022-09-09T11:41:15;19.07;34.73
73568;SHT30;61847;54.994;73.310;2022-09-09T11:43:45;19.08;34.92
73568;SHT30;61847;54.994;73.310;2022-09-09T11:46:14;19.05;35.03
73568;SHT30;61847;54.994;73.310;2022-09-09T11:48:43;19.00;34.80
73568;SHT30;61847;54.994;73.310;2022-09-09T11:53:59;18.91;34.51
73568;SHT30;61847;54.994;73.310;2022-09-09T11:56:44;18.88;34.34
73568;SHT30;61847;54.994;73.310;2022-09-09T11:59:20;18.84;34.17
73568;SHT30;61847;54.994;73.310;2022-09-09T12:02:13;18.75;33.85
73568;SHT30;61847;54.994;73.310;2022-09-09T12:09:50;18.67;34.57
73568;SHT30;61847;54.994;73.310;2022-09-09T12:12:32;18.63;34.10
73568;SHT30;61847;54.994;73.310;2022-09-09T12:17:53;18.54;34.21
73568;SHT30;61847;54.994;73.310;2022-09-09T12:32:10;18.29;34.56
73568;SHT30;61847;54.994;73.310;2022-09-09T12:34:52;18.26;34.42
73568;SHT30;61847;54.994;73.310;2022-09-09T12:37:57;18.22;34.22
73568;SHT30;61847;54.994;73.310;2022-09-09T12:40:27;18.19;34.22
73568;SHT30;61847;54.994;73.310;2022-09-09T12:42:54;18.22;34.47
73568;SHT30;61847;54.994;73.310;2022-09-09T12:45:40;18.15;34.75
73568;SHT30;61847;54.994;73.310;2022-09-09T12:48:12;18.13;35.08
73568;SHT30;61847;54.994;73.310;2022-09-09T12:50:49;18.09;35.53
73568;SHT30;61847;54.994;73.310;2022-09-09T12:53:33;18.10;35.66
73568;SHT30;61847;54.994;73.310;2022-09-09T12:58:45;17.99;35.98
73568;SHT30;61847;54.994;73.310;2022-09-09T13:01:26;17.97;36.18
73568;SHT30;61847;54.994;73.310;2022-09-09T13:03:57;17.91;36.65
73568;SHT30;61847;54.994;73.310;2022-09-09T13:06:31;17.88;36.91
73568;SHT30;61847;54.994;73.310;2022-09-09T13:09:00;17.82;36.90
73568;SHT30;61847;54.994;73.310;2022-09-09T13:11:46;17.78;37.53
73568;SHT30;61847;54.994;73.310;2022-09-09T13:14:30;17.70;37.54
73568;SHT30;61847;54.994;73.310;2022-09-09T13:17:00;17.67;37.92
73568;SHT30;61847;54.994;73.310;2022-09-09T13:19:29;17.60;38.14
73568;SHT30;61847;54.994;73.310;2022-09-09T13:22:14;17.51;38.56
73568;SHT30;61847;54.994;73.310;2022-09-09T13:24:44;17.46;38.61
73568;SHT30;61847;54.994;73.310;2022-09-09T13:29:57;17.32;39.37
73568;SHT30;61847;54.994;73.310;2022-09-09T13:32:24;17.26;39.32
73568;SHT30;61847;54.994;73.310;2022-09-09T13:34:57;17.19;39.56
73568;SHT30;61847;54.994;73.310;2022-09-09T13:39:56;17.11;39.97
73568;SHT30;61847;54.994;73.310;2022-09-09T13:42:26;17.02;40.17
73568;SHT30;61847;54.994;73.310;2022-09-09T13:44:56;16.96;40.64
73568;SHT30;61847;54.994;73.310;2022-09-09T13:47:36;16.86;40.87
73568;SHT30;61847;54.994;73.310;2022-09-09T13:50:26;16.82;42.15
73568;SHT30;61847;54.994;73.310;2022-09-09T13:52:57;16.71;42.91
73568;SHT30;61847;54.994;73.310;2022-09-09T13:55:27;16.61;43.11
73568;SHT30;61847;54.994;73.310;2022-09-09T13:58:04;16.55;42.96
73568;SHT30;61847;54.994;73.310;2022-09-09T14:00:34;16.48;42.86
73568;SHT30;61847;54.994;73.310;2022-09-09T14:03:00;16.51;42.99
73568;SHT30;61847;54.994;73.310;2022-09-09T14:05:33;16.47;43.15
73568;SHT30;61847;54.994;73.310;2022-09-09T14:08:07;16.41;43.18
73568;SHT30;61847;54.994;73.310;2022-09-09T14:10:34;16.38;43.17
73568;SHT30;61847;54.994;73.310;2022-09-09T14:13:07;16.38;42.99
73568;SHT30;61847;54.994;73.310;2022-09-09T14:15:39;16.36;43.03
73568;SHT30;61847;54.994;73.310;2022-09-09T14:18:05;16.33;42.97
73568;SHT30;61847;54.994;73.310;2022-09-09T14:20:38;16.30;43.18
73568;SHT30;61847;54.994;73.310;2022-09-09T14:23:04;16.27;43.40
73568;SHT30;61847;54.994;73.310;2022-09-09T14:25:30;16.18;43.51
73568;SHT30;61847;54.994;73.310;2022-09-09T14:28:04;16.14;43.61
73568;SHT30;61847;54.994;73.310;2022-09-09T14:30:31;16.09;43.85
73568;SHT30;61847;54.994;73.310;2022-09-09T14:33:08;16.05;44.03
73568;SHT30;61847;54.994;73.310;2022-09-09T14:35:35;16.00;44.18
73568;SHT30;61847;54.994;73.310;2022-09-09T14:38:03;15.95;44.10
73568;SHT30;61847;54.994;73.310;2022-09-09T14:40:36;15.89;44.96
73568;SHT30;61847;54.994;73.310;2022-09-09T14:43:03;15.89;44.74
73568;SHT30;61847;54.994;73.310;2022-09-09T14:45:30;15.85;44.38
73568;SHT30;61847;54.994;73.310;2022-09-09T14:47:56;15.78;44.62
73568;SHT30;61847;54.994;73.310;2022-09-09T14:50:23;15.69;44.86
73568;SHT30;61847;54.994;73.310;2022-09-09T14:52:55;15.66;44.95
73568;SHT30;61847;54.994;73.310;2022-09-09T14:55:21;15.59;45.76
73568;SHT30;61847;54.994;73.310;2022-09-09T14:57:53;15.57;46.52
73568;SHT30;61847;54.994;73.310;2022-09-09T15:00:20;15.51;47.13
73568;SHT30;61847;54.994;73.310;2022-09-09T15:02:46;15.48;47.91
73568;SHT30;61847;54.994;73.310;2022-09-09T15:05:23;15.35;48.80
73568;SHT30;61847;54.994;73.310;2022-09-09T15:07:59;15.27;48.86
73568;SHT30;61847;54.994;73.310;2022-09-09T15:10:26;15.14;49.41
73568;SHT30;61847;54.994;73.310;2022-09-09T15:12:57;15.10;49.59
73568;SHT30;61847;54.994;73.310;2022-09-09T15:15:23;15.06;49.19
73568;SHT30;61847;54.994;73.310;2022-09-09T15:17:49;14.97;50.06
73568;SHT30;61847;54.994;73.310;2022-09-09T15:20:15;14.92;50.04
73568;SHT30;61847;54.994;73.310;2022-09-09T15:22:42;14.90;50.19
73568;SHT30;61847;54.994;73.310;2022-09-09T15:25:08;14.89;49.72
73568;SHT30;61847;54.994;73.310;2022-09-09T15:27:34;14.83;51.08
73568;SHT30;61847;54.994;73.310;2022-09-09T15:30:01;14.80;50.84
73568;SHT30;61847;54.994;73.310;2022-09-09T15:32:27;14.72;51.37
73568;SHT30;61847;54.994;73.310;2022-09-09T15:35:05;14.62;51.84
73568;SHT30;61847;54.994;73.310;2022-09-09T15:37:31;14.59;52.14
73568;SHT30;61847;54.994;73.310;2022-09-09T15:40:02;14.58;52.01
73568;SHT30;61847;54.994;73.310;2022-09-09T15:42:29;14.54;51.16
73568;SHT30;61847;54.994;73.310;2022-09-09T15:45:00;14.54;52.05
73568;SHT30;61847;54.994;73.310;2022-09-09T15:47:27;14.49;52.34
73568;SHT30;61847;54.994;73.310;2022-09-09T15:49:53;14.45;51.64
73568;SHT30;61847;54.994;73.310;2022-09-09T15:52:19;14.36;52.75
73568;SHT30;61847;54.994;73.310;2022-09-09T15:54:45;14.34;52.91
73568;SHT30;61847;54.994;73.310;2022-09-09T15:57:12;14.24;54.21
73568;SHT30;61847;54.994;73.310;2022-09-09T15:59:39;14.21;54.82
73568;SHT30;61847;54.994;73.310;2022-09-09T16:02:06;14.20;54.95
73568;SHT30;61847;54.994;73.310;2022-09-09T16:04:43;14.13;55.77
73568;SHT30;61847;54.994;73.310;2022-09-09T16:07:09;14.10;56.39
73568;SHT30;61847;54.994;73.310;2022-09-09T16:09:36;14.03;56.28
73568;SHT30;61847;54.994;73.310;2022-09-09T16:12:04;13.96;56.40
73568;SHT30;61847;54.994;73.310;2022-09-09T16:14:45;13.89;56.81
73568;SHT30;61847;54.994;73.310;2022-09-09T16:17:11;13.80;56.93
73568;SHT30;61847;54.994;73.310;2022-09-09T16:19:42;13.74;57.67
73568;SHT30;61847;54.994;73.310;2022-09-09T16:22:08;13.74;57.99
73568;SHT30;61847;54.994;73.310;2022-09-09T16:24:43;13.74;56.19
73568;SHT30;61847;54.994;73.310;2022-09-09T16:27:10;13.65;58.24
73568;SHT30;61847;54.994;73.310;2022-09-09T16:29:37;13.59;58.69
73568;SHT30;61847;54.994;73.310;2022-09-09T16:32:08;13.52;59.24
73568;SHT30;61847;54.994;73.310;2022-09-09T16:34:38;13.43;59.35
73568;SHT30;61847;54.994;73.310;2022-09-09T16:37:04;13.45;59.32
73568;SHT30;61847;54.994;73.310;2022-09-09T16:39:31;13.48;59.13
73568;SHT30;61847;54.994;73.310;2022-09-09T16:42:04;13.52;58.36
73568;SHT30;61847;54.994;73.310;2022-09-09T16:44:40;13.45;58.98
73568;SHT30;61847;54.994;73.310;2022-09-09T16:47:07;13.35;59.89
73568;SHT30;61847;54.994;73.310;2022-09-09T16:49:34;13.31;59.47
73568;SHT30;61847;54.994;73.310;2022-09-09T16:52:00;13.32;59.45
73568;SHT30;61847;54.994;73.310;2022-09-09T16:54:34;13.23;60.41
73568;SHT30;61847;54.994;73.310;2022-09-09T16:57:02;13.19;60.54
73568;SHT30;61847;54.994;73.310;2022-09-09T16:59:29;13.10;61.30
73568;SHT30;61847;54.994;73.310;2022-09-09T17:01:59;13.08;61.15
73568;SHT30;61847;54.994;73.310;2022-09-09T17:04:31;13.12;60.90
73568;SHT30;61847;54.994;73.310;2022-09-09T17:07:07;13.10;61.12
73568;SHT30;61847;54.994;73.310;2022-09-09T17:09:33;13.04;61.79
73568;SHT30;61847;54.994;73.310;2022-09-09T17:12:04;12.97;61.70
73568;SHT30;61847;54.994;73.310;2022-09-09T17:14:32;13.02;60.22
73568;SHT30;61847;54.994;73.310;2022-09-09T17:16:58;13.10;60.82
73568;SHT30;61847;54.994;73.310;2022-09-09T17:19:31;13.07;60.97
73568;SHT30;61847;54.994;73.310;2022-09-09T17:21:57;13.00;61.65
73568;SHT30;61847;54.994;73.310;2022-09-09T17:24:26;12.94;61.08
73568;SHT30;61847;54.994;73.310;2022-09-09T17:26:54;12.97;61.31
73568;SHT30;61847;54.994;73.310;2022-09-09T17:29:21;12.95;61.84
73568;SHT30;61847;54.994;73.310;2022-09-09T17:31:58;12.90;62.16
73568;SHT30;61847;54.994;73.310;2022-09-09T17:34:24;12.87;61.93
73568;SHT30;61847;54.994;73.310;2022-09-09T17:36:51;12.93;61.08
73568;SHT30;61847;54.994;73.310;2022-09-09T17:39:18;12.88;61.43
73568;SHT30;61847;54.994;73.310;2022-09-09T17:41:48;13.00;58.94
73568;SHT30;61847;54.994;73.310;2022-09-09T17:44:15;13.12;58.30
73568;SHT30;61847;54.994;73.310;2022-09-09T17:46:42;13.08;58.99
73568;SHT30;61847;54.994;73.310;2022-09-09T17:49:11;13.02;59.75
73568;SHT30;61847;54.994;73.310;2022-09-09T17:51:43;13.07;59.01
73568;SHT30;61847;54.994;73.310;2022-09-09T17:54:19;13.10;59.08